sensor_id;sensor_type;location;lat;lon;timestamp;P1;durP1;ratioP1;P2;durP2;ratioP2
6290;SDS011;3178;48.730;8.990;2022-10-23T00:03:54;13.53;;;4.30;;
6290;SDS011;3178;48.730;8.990;2022-10-23T00:06:21;17.03;;;4.33;;
6290;SDS011;3178;48.730;8.990;2022-10-23T00:08:47;11.23;;;4.23;;
6290;SDS011;3178;48.730;8.990;2022-10-23T00:11:15;8.97;;;4.50;;
6290;SDS011;3178;48.730;8.990;2022-10-23T00:13:42;18.13;;;4.20;;
6290;SDS011;3178;48.730;8.990;2022-10-23T00:16:09;8.87;;;4.83;;
6290;SDS011;3178;48.730;8.990;2022-10-23T00:18:35;12.13;;;3.93;;
6290;SDS011;3178;48.730;8.990;2022-10-23T00:21:02;14.77;;;3.67;;
6290;SDS011;3178;48.730;8.990;2022-10-23T00:23:29;13.07;;;4.73;;
6290;SDS011;3178;48.730;8.990;2022-10-23T00:25:54;8.30;;;3.93;;
6290;SDS011;3178;48.730;8.990;2022-10-23T00:28:20;18.90;;;4.40;;
6290;SDS011;3178;48.730;8.990;2022-10-23T00:30:46;25.13;;;3.90;;
6290;SDS011;3178;48.730;8.990;2022-10-23T00:33:11;9.00;;;3.83;;
6290;SDS011;3178;48.730;8.990;2022-10-23T00:35:40;13.00;;;4.10;;
6290;SDS011;3178;48.730;8.990;2022-10-23T00:38:07;21.50;;;4.80;;
6290;SDS011;3178;48.730;8.990;2022-10-23T00:40:34;7.50;;;3.30;;
6290;SDS011;3178;48.730;8.990;2022-10-23T00:43:00;6.27;;;3.97;;
6290;SDS011;3178;48.730;8.990;2022-10-23T00:45:27;10.20;;;4.40;;
6290;SDS011;3178;48.730;8.990;2022-10-23T00:47:57;8.70;;;4.03;;
6290;SDS011;3178;48.730;8.990;2022-10-23T00:50:26;18.80;;;4.00;;
6290;SDS011;3178;48.730;8.990;2022-10-23T00:52:54;16.43;;;4.50;;
6290;SDS011;3178;48.730;8.990;2022-10-23T00:55:21;15.00;;;3.90;;
6290;SDS011;3178;48.730;8.990;2022-10-23T00:57:49;36.27;;;5.83;;
6290;SDS011;3178;48.730;8.990;2022-10-23T01:00:20;9.33;;;3.93;;
6290;SDS011;3178;48.730;8.990;2022-10-23T01:02:46;8.20;;;3.50;;
6290;SDS011;3178;48.730;8.990;2022-10-23T01:05:12;15.53;;;3.30;;
6290;SDS011;3178;48.730;8.990;2022-10-23T01:07:43;6.80;;;3.17;;
6290;SDS011;3178;48.730;8.990;2022-10-23T01:16:23;15.03;;;2.70;;
6290;SDS011;3178;48.730;8.990;2022-10-23T01:19:10;14.03;;;3.33;;
6290;SDS011;3178;48.730;8.990;2022-10-23T01:22:04;5.33;;;2.70;;
6290;SDS011;3178;48.730;8.990;2022-10-23T01:24:52;14.30;;;3.43;;
6290;SDS011;3178;48.730;8.990;2022-10-23T01:27:23;7.30;;;3.00;;
6290;SDS011;3178;48.730;8.990;2022-10-23T01:29:57;10.60;;;2.37;;
6290;SDS011;3178;48.730;8.990;2022-10-23T01:35:27;12.50;;;3.40;;
6290;SDS011;3178;48.730;8.990;2022-10-23T01:37:55;6.57;;;2.60;;
6290;SDS011;3178;48.730;8.990;2022-10-23T01:40:40;5.23;;;2.60;;
6290;SDS011;3178;48.730;8.990;2022-10-23T01:43:14;4.30;;;2.63;;
6290;SDS011;3178;48.730;8.990;2022-10-23T01:45:48;7.77;;;3.10;;
6290;SDS011;3178;48.730;8.990;2022-10-23T01:48:35;5.30;;;2.70;;
6290;SDS011;3178;48.730;8.990;2022-10-23T01:51:05;4.03;;;2.60;;
6290;SDS011;3178;48.730;8.990;2022-10-23T01:53:33;13.17;;;2.87;;
6290;SDS011;3178;48.730;8.990;2022-10-23T01:56:05;2.83;;;2.57;;
6290;SDS011;3178;48.730;8.990;2022-10-23T01:58:36;12.60;;;2.37;;
6290;SDS011;3178;48.730;8.990;2022-10-23T02:01:06;10.53;;;2.83;;
6290;SDS011;3178;48.730;8.990;2022-10-23T02:03:34;9.50;;;2.70;;
6290;SDS011;3178;48.730;8.990;2022-10-23T02:06:01;6.40;;;2.40;;
6290;SDS011;3178;48.730;8.990;2022-10-23T02:08:27;16.93;;;2.80;;
6290;SDS011;3178;48.730;8.990;2022-10-23T02:13:38;9.77;;;2.63;;
6290;SDS011;3178;48.730;8.990;2022-10-23T02:16:31;5.17;;;2.70;;
6290;SDS011;3178;48.730;8.990;2022-10-23T02:19:16;4.30;;;2.20;;
6290;SDS011;3178;48.730;8.990;2022-10-23T02:21:55;18.00;;;2.57;;
6290;SDS011;3178;48.730;8.990;2022-10-23T02:24:44;7.90;;;2.30;;
6290;SDS011;3178;48.730;8.990;2022-10-23T02:27:31;8.47;;;2.60;;
6290;SDS011;3178;48.730;8.990;2022-10-23T02:30:07;6.13;;;2.70;;
6290;SDS011;3178;48.730;8.990;2022-10-23T02:32:35;13.03;;;2.40;;
6290;SDS011;3178;48.730;8.990;2022-10-23T02:35:05;13.87;;;3.27;;
6290;SDS011;3178;48.730;8.990;2022-10-23T02:37:32;10.70;;;3.40;;
6290;SDS011;3178;48.730;8.990;2022-10-23T02:39:58;8.03;;;2.60;;
6290;SDS011;3178;48.730;8.990;2022-10-23T02:42:34;13.80;;;2.50;;
6290;SDS011;3178;48.730;8.990;2022-10-23T02:48:09;10.63;;;2.97;;
6290;SDS011;3178;48.730;8.990;2022-10-23T02:50:44;9.87;;;2.70;;
6290;SDS011;3178;48.730;8.990;2022-10-23T02:53:32;6.30;;;1.97;;
6290;SDS011;3178;48.730;8.990;2022-10-23T02:58:50;9.70;;;2.40;;
6290;SDS011;3178;48.730;8.990;2022-10-23T03:01:26;6.00;;;2.80;;
6290;SDS011;3178;48.730;8.990;2022-10-23T03:03:59;10.97;;;3.30;;
6290;SDS011;3178;48.730;8.990;2022-10-23T03:06:27;11.53;;;2.50;;
6290;SDS011;3178;48.730;8.990;2022-10-23T03:08:54;8.17;;;2.50;;
6290;SDS011;3178;48.730;8.990;2022-10-23T03:11:23;5.97;;;2.33;;
6290;SDS011;3178;48.730;8.990;2022-10-23T03:13:49;5.93;;;2.67;;
6290;SDS011;3178;48.730;8.990;2022-10-23T03:16:14;7.03;;;3.20;;
6290;SDS011;3178;48.730;8.990;2022-10-23T03:18:40;3.30;;;2.33;;
6290;SDS011;3178;48.730;8.990;2022-10-23T03:21:05;10.77;;;2.57;;
6290;SDS011;3178;48.730;8.990;2022-10-23T03:23:31;18.30;;;2.60;;
6290;SDS011;3178;48.730;8.990;2022-10-23T03:25:57;6.77;;;2.50;;
6290;SDS011;3178;48.730;8.990;2022-10-23T03:28:22;7.10;;;2.50;;
6290;SDS011;3178;48.730;8.990;2022-10-23T03:30:48;5.07;;;2.20;;
6290;SDS011;3178;48.730;8.990;2022-10-23T03:33:13;5.13;;;2.50;;
6290;SDS011;3178;48.730;8.990;2022-10-23T03:35:39;4.53;;;2.50;;
6290;SDS011;3178;48.730;8.990;2022-10-23T03:38:05;4.27;;;2.20;;
6290;SDS011;3178;48.730;8.990;2022-10-23T03:40:30;9.20;;;2.63;;
6290;SDS011;3178;48.730;8.990;2022-10-23T03:42:56;5.20;;;3.07;;
6290;SDS011;3178;48.730;8.990;2022-10-23T03:45:22;5.50;;;2.80;;
6290;SDS011;3178;48.730;8.990;2022-10-23T03:47:47;5.23;;;2.50;;
6290;SDS011;3178;48.730;8.990;2022-10-23T03:50:14;12.10;;;2.73;;
6290;SDS011;3178;48.730;8.990;2022-10-23T03:52:40;4.50;;;2.80;;
6290;SDS011;3178;48.730;8.990;2022-10-23T03:55:06;16.63;;;2.60;;
6290;SDS011;3178;48.730;8.990;2022-10-23T03:57:32;5.67;;;2.47;;
6290;SDS011;3178;48.730;8.990;2022-10-23T03:59:57;7.33;;;2.60;;
6290;SDS011;3178;48.730;8.990;2022-10-23T04:02:23;6.23;;;2.53;;
6290;SDS011;3178;48.730;8.990;2022-10-23T04:04:49;5.53;;;2.20;;
6290;SDS011;3178;48.730;8.990;2022-10-23T04:07:14;10.63;;;2.60;;
6290;SDS011;3178;48.730;8.990;2022-10-23T04:09:40;2.90;;;2.27;;
6290;SDS011;3178;48.730;8.990;2022-10-23T04:12:05;5.20;;;2.83;;
6290;SDS011;3178;48.730;8.990;2022-10-23T04:14:31;4.83;;;2.37;;
6290;SDS011;3178;48.730;8.990;2022-10-23T04:16:57;6.03;;;3.10;;
6290;SDS011;3178;48.730;8.990;2022-10-23T04:19:23;2.97;;;2.10;;
6290;SDS011;3178;48.730;8.990;2022-10-23T04:21:48;9.07;;;2.77;;
6290;SDS011;3178;48.730;8.990;2022-10-23T04:24:14;15.13;;;2.87;;
6290;SDS011;3178;48.730;8.990;2022-10-23T04:26:39;8.20;;;2.90;;
6290;SDS011;3178;48.730;8.990;2022-10-23T04:29:05;6.57;;;3.20;;
6290;SDS011;3178;48.730;8.990;2022-10-23T04:31:31;3.93;;;2.50;;
6290;SDS011;3178;48.730;8.990;2022-10-23T04:33:56;6.50;;;2.77;;
6290;SDS011;3178;48.730;8.990;2022-10-23T04:36:22;2.63;;;2.43;;
6290;SDS011;3178;48.730;8.990;2022-10-23T04:38:47;4.90;;;3.27;;
6290;SDS011;3178;48.730;8.990;2022-10-23T04:41:13;8.00;;;4.93;;
6290;SDS011;3178;48.730;8.990;2022-10-23T04:43:39;10.27;;;2.90;;
6290;SDS011;3178;48.730;8.990;2022-10-23T04:46:04;18.93;;;3.40;;
6290;SDS011;3178;48.730;8.990;2022-10-23T04:48:30;8.07;;;3.00;;
6290;SDS011;3178;48.730;8.990;2022-10-23T04:51:00;7.80;;;2.80;;
6290;SDS011;3178;48.730;8.990;2022-10-23T04:53:28;10.77;;;2.77;;
6290;SDS011;3178;48.730;8.990;2022-10-23T04:55:55;7.27;;;2.50;;
6290;SDS011;3178;48.730;8.990;2022-10-23T04:58:22;6.20;;;2.80;;
6290;SDS011;3178;48.730;8.990;2022-10-23T05:00:49;8.30;;;2.90;;
6290;SDS011;3178;48.730;8.990;2022-10-23T05:03:16;12.33;;;4.17;;
6290;SDS011;3178;48.730;8.990;2022-10-23T05:05:42;11.43;;;2.50;;
6290;SDS011;3178;48.730;8.990;2022-10-23T05:08:09;6.57;;;3.27;;
6290;SDS011;3178;48.730;8.990;2022-10-23T05:10:35;9.90;;;3.10;;
6290;SDS011;3178;48.730;8.990;2022-10-23T05:13:01;6.60;;;2.50;;
6290;SDS011;3178;48.730;8.990;2022-10-23T05:15:27;10.10;;;2.43;;
6290;SDS011;3178;48.730;8.990;2022-10-23T05:17:54;3.20;;;2.20;;
6290;SDS011;3178;48.730;8.990;2022-10-23T05:20:24;6.07;;;2.50;;
6290;SDS011;3178;48.730;8.990;2022-10-23T05:22:53;17.10;;;2.40;;
6290;SDS011;3178;48.730;8.990;2022-10-23T05:25:22;5.33;;;2.70;;
6290;SDS011;3178;48.730;8.990;2022-10-23T05:27:47;11.40;;;3.37;;
6290;SDS011;3178;48.730;8.990;2022-10-23T05:30:13;18.23;;;3.27;;
6290;SDS011;3178;48.730;8.990;2022-10-23T05:32:39;17.07;;;2.83;;
6290;SDS011;3178;48.730;8.990;2022-10-23T05:35:08;5.40;;;3.00;;
6290;SDS011;3178;48.730;8.990;2022-10-23T05:37:39;9.77;;;2.50;;
6290;SDS011;3178;48.730;8.990;2022-10-23T05:40:06;7.57;;;2.40;;
6290;SDS011;3178;48.730;8.990;2022-10-23T05:42:33;9.37;;;3.33;;
6290;SDS011;3178;48.730;8.990;2022-10-23T05:44:58;14.10;;;2.60;;
6290;SDS011;3178;48.730;8.990;2022-10-23T05:47:24;7.90;;;2.80;;
6290;SDS011;3178;48.730;8.990;2022-10-23T05:49:49;2.47;;;2.27;;
6290;SDS011;3178;48.730;8.990;2022-10-23T05:52:15;5.77;;;2.90;;
6290;SDS011;3178;48.730;8.990;2022-10-23T05:54:40;9.57;;;3.40;;
6290;SDS011;3178;48.730;8.990;2022-10-23T05:57:06;7.50;;;5.47;;
6290;SDS011;3178;48.730;8.990;2022-10-23T05:59:31;41.93;;;26.73;;
6290;SDS011;3178;48.730;8.990;2022-10-23T06:01:57;12.07;;;7.67;;
6290;SDS011;3178;48.730;8.990;2022-10-23T06:04:22;88.90;;;59.27;;
6290;SDS011;3178;48.730;8.990;2022-10-23T06:06:48;39.17;;;24.87;;
6290;SDS011;3178;48.730;8.990;2022-10-23T06:09:14;44.47;;;27.50;;
6290;SDS011;3178;48.730;8.990;2022-10-23T06:11:40;16.93;;;6.47;;
6290;SDS011;3178;48.730;8.990;2022-10-23T06:14:06;10.20;;;5.20;;
6290;SDS011;3178;48.730;8.990;2022-10-23T06:16:32;6.90;;;3.97;;
6290;SDS011;3178;48.730;8.990;2022-10-23T06:18:57;17.13;;;6.60;;
6290;SDS011;3178;48.730;8.990;2022-10-23T06:21:24;5.03;;;3.47;;
6290;SDS011;3178;48.730;8.990;2022-10-23T06:23:49;5.73;;;3.07;;
6290;SDS011;3178;48.730;8.990;2022-10-23T06:26:16;7.37;;;2.90;;
6290;SDS011;3178;48.730;8.990;2022-10-23T06:28:43;5.00;;;2.40;;
6290;SDS011;3178;48.730;8.990;2022-10-23T06:31:13;7.77;;;3.20;;
6290;SDS011;3178;48.730;8.990;2022-10-23T06:33:40;8.30;;;2.80;;
6290;SDS011;3178;48.730;8.990;2022-10-23T06:36:05;14.90;;;2.87;;
6290;SDS011;3178;48.730;8.990;2022-10-23T06:38:34;6.30;;;2.63;;
6290;SDS011;3178;48.730;8.990;2022-10-23T06:41:03;25.13;;;3.50;;
6290;SDS011;3178;48.730;8.990;2022-10-23T06:43:31;6.20;;;2.83;;
6290;SDS011;3178;48.730;8.990;2022-10-23T06:46:00;4.67;;;2.47;;
6290;SDS011;3178;48.730;8.990;2022-10-23T06:48:27;8.90;;;2.70;;
6290;SDS011;3178;48.730;8.990;2022-10-23T06:50:53;8.90;;;2.67;;
6290;SDS011;3178;48.730;8.990;2022-10-23T06:53:19;12.50;;;2.23;;
6290;SDS011;3178;48.730;8.990;2022-10-23T06:55:47;6.70;;;2.57;;
6290;SDS011;3178;48.730;8.990;2022-10-23T06:58:13;5.80;;;2.50;;
6290;SDS011;3178;48.730;8.990;2022-10-23T07:00:38;12.93;;;2.77;;
6290;SDS011;3178;48.730;8.990;2022-10-23T07:03:04;13.33;;;4.10;;
6290;SDS011;3178;48.730;8.990;2022-10-23T07:05:32;3.60;;;2.93;;
6290;SDS011;3178;48.730;8.990;2022-10-23T07:07:59;7.60;;;2.93;;
6290;SDS011;3178;48.730;8.990;2022-10-23T07:10:25;15.03;;;4.20;;
6290;SDS011;3178;48.730;8.990;2022-10-23T07:12:51;8.90;;;3.50;;
6290;SDS011;3178;48.730;8.990;2022-10-23T07:15:16;4.70;;;3.30;;
6290;SDS011;3178;48.730;8.990;2022-10-23T07:17:42;6.90;;;3.33;;
6290;SDS011;3178;48.730;8.990;2022-10-23T07:20:07;10.23;;;3.53;;
6290;SDS011;3178;48.730;8.990;2022-10-23T07:22:33;5.60;;;2.50;;
6290;SDS011;3178;48.730;8.990;2022-10-23T07:24:59;4.67;;;3.07;;
6290;SDS011;3178;48.730;8.990;2022-10-23T07:27:24;5.50;;;3.17;;
6290;SDS011;3178;48.730;8.990;2022-10-23T07:29:50;9.20;;;3.37;;
6290;SDS011;3178;48.730;8.990;2022-10-23T07:32:16;8.93;;;3.17;;
6290;SDS011;3178;48.730;8.990;2022-10-23T07:34:42;3.27;;;2.60;;
6290;SDS011;3178;48.730;8.990;2022-10-23T07:37:07;9.83;;;3.03;;
6290;SDS011;3178;48.730;8.990;2022-10-23T07:39:33;3.27;;;2.40;;
6290;SDS011;3178;48.730;8.990;2022-10-23T07:41:58;11.03;;;2.50;;
6290;SDS011;3178;48.730;8.990;2022-10-23T07:44:24;8.17;;;2.53;;
6290;SDS011;3178;48.730;8.990;2022-10-23T07:46:50;5.87;;;2.20;;
6290;SDS011;3178;48.730;8.990;2022-10-23T07:49:15;4.23;;;2.70;;
6290;SDS011;3178;48.730;8.990;2022-10-23T07:51:41;5.30;;;2.40;;
6290;SDS011;3178;48.730;8.990;2022-10-23T07:54:08;6.20;;;2.70;;
6290;SDS011;3178;48.730;8.990;2022-10-23T07:56:35;9.13;;;2.10;;
6290;SDS011;3178;48.730;8.990;2022-10-23T07:59:01;4.50;;;2.17;;
6290;SDS011;3178;48.730;8.990;2022-10-23T08:03:57;4.43;;;2.17;;
6290;SDS011;3178;48.730;8.990;2022-10-23T08:06:23;4.27;;;2.10;;
6290;SDS011;3178;48.730;8.990;2022-10-23T08:08:48;2.33;;;1.37;;
6290;SDS011;3178;48.730;8.990;2022-10-23T08:11:14;3.40;;;1.50;;
6290;SDS011;3178;48.730;8.990;2022-10-23T08:13:42;3.43;;;1.50;;
6290;SDS011;3178;48.730;8.990;2022-10-23T08:16:08;2.73;;;1.60;;
6290;SDS011;3178;48.730;8.990;2022-10-23T08:18:33;2.20;;;1.43;;
6290;SDS011;3178;48.730;8.990;2022-10-23T08:21:00;8.40;;;1.60;;
6290;SDS011;3178;48.730;8.990;2022-10-23T08:23:27;3.07;;;1.67;;
6290;SDS011;3178;48.730;8.990;2022-10-23T08:25:57;5.90;;;1.80;;
6290;SDS011;3178;48.730;8.990;2022-10-23T08:28:24;3.40;;;1.67;;
6290;SDS011;3178;48.730;8.990;2022-10-23T08:30:50;1.53;;;1.23;;
6290;SDS011;3178;48.730;8.990;2022-10-23T08:33:16;2.40;;;1.40;;
6290;SDS011;3178;48.730;8.990;2022-10-23T08:35:41;2.73;;;1.33;;
6290;SDS011;3178;48.730;8.990;2022-10-23T08:38:07;3.40;;;1.30;;
6290;SDS011;3178;48.730;8.990;2022-10-23T08:40:34;2.53;;;1.40;;
6290;SDS011;3178;48.730;8.990;2022-10-23T08:45:38;13.00;;;1.50;;
6290;SDS011;3178;48.730;8.990;2022-10-23T08:48:15;5.40;;;1.80;;
6290;SDS011;3178;48.730;8.990;2022-10-23T08:50:55;5.80;;;1.60;;
6290;SDS011;3178;48.730;8.990;2022-10-23T08:53:35;4.10;;;1.80;;
6290;SDS011;3178;48.730;8.990;2022-10-23T08:56:26;5.77;;;1.90;;
6290;SDS011;3178;48.730;8.990;2022-10-23T09:04:10;1.80;;;1.20;;
6290;SDS011;3178;48.730;8.990;2022-10-23T09:09:17;2.97;;;1.10;;
6290;SDS011;3178;48.730;8.990;2022-10-23T09:12:07;3.57;;;1.00;;
6290;SDS011;3178;48.730;8.990;2022-10-23T09:17:44;4.03;;;1.13;;
6290;SDS011;3178;48.730;8.990;2022-10-23T09:22:46;3.37;;;1.40;;
6290;SDS011;3178;48.730;8.990;2022-10-23T09:25:17;16.57;;;1.60;;
6290;SDS011;3178;48.730;8.990;2022-10-23T09:27:49;4.82;;;1.20;;
6290;SDS011;3178;48.730;8.990;2022-10-23T09:30:39;1.85;;;1.20;;
6290;SDS011;3178;48.730;8.990;2022-10-23T09:33:12;2.53;;;1.10;;
6290;SDS011;3178;48.730;8.990;2022-10-23T09:36:00;2.13;;;1.05;;
6290;SDS011;3178;48.730;8.990;2022-10-23T09:38:44;3.83;;;1.05;;
6290;SDS011;3178;48.730;8.990;2022-10-23T09:41:26;12.55;;;1.42;;
6290;SDS011;3178;48.730;8.990;2022-10-23T09:44:00;2.05;;;1.33;;
6290;SDS011;3178;48.730;8.990;2022-10-23T09:46:39;2.35;;;1.00;;
6290;SDS011;3178;48.730;8.990;2022-10-23T09:49:20;5.22;;;1.00;;
6290;SDS011;3178;48.730;8.990;2022-10-23T09:54:38;5.10;;;1.00;;
6290;SDS011;3178;48.730;8.990;2022-10-23T09:57:18;3.60;;;1.10;;
6290;SDS011;3178;48.730;8.990;2022-10-23T10:00:44;1.75;;;1.00;;
6290;SDS011;3178;48.730;8.990;2022-10-23T10:02:57;1.10;;;0.88;;
6290;SDS011;3178;48.730;8.990;2022-10-23T10:05:26;2.95;;;0.90;;
6290;SDS011;3178;48.730;8.990;2022-10-23T10:08:04;7.47;;;1.13;;
6290;SDS011;3178;48.730;8.990;2022-10-23T10:10:44;1.50;;;1.00;;
6290;SDS011;3178;48.730;8.990;2022-10-23T10:15:57;3.65;;;1.10;;
6290;SDS011;3178;48.730;8.990;2022-10-23T10:18:46;4.30;;;1.08;;
6290;SDS011;3178;48.730;8.990;2022-10-23T10:21:26;2.50;;;1.05;;
6290;SDS011;3178;48.730;8.990;2022-10-23T10:29:22;2.87;;;1.50;;
6290;SDS011;3178;48.730;8.990;2022-10-23T10:34:54;1.90;;;1.17;;
6290;SDS011;3178;48.730;8.990;2022-10-23T10:37:28;1.50;;;0.85;;
6290;SDS011;3178;48.730;8.990;2022-10-23T10:40:08;7.37;;;2.07;;
6290;SDS011;3178;48.730;8.990;2022-10-23T10:45:36;4.03;;;1.00;;
6290;SDS011;3178;48.730;8.990;2022-10-23T10:50:49;1.77;;;1.17;;
6290;SDS011;3178;48.730;8.990;2022-10-23T10:55:51;3.13;;;0.90;;
6290;SDS011;3178;48.730;8.990;2022-10-23T10:58:20;1.40;;;0.80;;
6290;SDS011;3178;48.730;8.990;2022-10-23T11:00:55;1.57;;;0.90;;
6290;SDS011;3178;48.730;8.990;2022-10-23T11:03:37;3.63;;;1.00;;
6290;SDS011;3178;48.730;8.990;2022-10-23T11:06:18;1.20;;;0.80;;
6290;SDS011;3178;48.730;8.990;2022-10-23T11:08:46;9.40;;;1.07;;
6290;SDS011;3178;48.730;8.990;2022-10-23T11:11:13;6.30;;;1.00;;
6290;SDS011;3178;48.730;8.990;2022-10-23T11:13:43;1.33;;;0.70;;
6290;SDS011;3178;48.730;8.990;2022-10-23T11:16:13;4.43;;;1.00;;
6290;SDS011;3178;48.730;8.990;2022-10-23T11:21:34;3.13;;;0.97;;
6290;SDS011;3178;48.730;8.990;2022-10-23T11:24:10;9.13;;;1.00;;
6290;SDS011;3178;48.730;8.990;2022-10-23T11:26:53;1.77;;;0.87;;
6290;SDS011;3178;48.730;8.990;2022-10-23T11:29:46;2.17;;;1.00;;
6290;SDS011;3178;48.730;8.990;2022-10-23T11:35:47;1.60;;;0.90;;
6290;SDS011;3178;48.730;8.990;2022-10-23T11:38:27;1.30;;;0.83;;
6290;SDS011;3178;48.730;8.990;2022-10-23T11:40:56;1.80;;;0.63;;
6290;SDS011;3178;48.730;8.990;2022-10-23T11:43:28;4.30;;;1.20;;
6290;SDS011;3178;48.730;8.990;2022-10-23T11:45:54;1.37;;;0.70;;
6290;SDS011;3178;48.730;8.990;2022-10-23T11:48:40;1.20;;;0.70;;
6290;SDS011;3178;48.730;8.990;2022-10-23T11:56:36;3.83;;;0.90;;
6290;SDS011;3178;48.730;8.990;2022-10-23T11:59:20;1.30;;;0.60;;
6290;SDS011;3178;48.730;8.990;2022-10-23T12:01:50;3.00;;;0.60;;
6290;SDS011;3178;48.730;8.990;2022-10-23T12:04:19;5.73;;;1.17;;
6290;SDS011;3178;48.730;8.990;2022-10-23T12:06:54;5.17;;;0.73;;
6290;SDS011;3178;48.730;8.990;2022-10-23T12:14:47;4.23;;;1.10;;
6290;SDS011;3178;48.730;8.990;2022-10-23T12:19:55;2.10;;;1.07;;
6290;SDS011;3178;48.730;8.990;2022-10-23T12:22:31;2.33;;;1.30;;
6290;SDS011;3178;48.730;8.990;2022-10-23T12:36:49;1.30;;;0.90;;
6290;SDS011;3178;48.730;8.990;2022-10-23T12:39:32;3.40;;;1.30;;
6290;SDS011;3178;48.730;8.990;2022-10-23T12:42:05;10.20;;;1.30;;
6290;SDS011;3178;48.730;8.990;2022-10-23T12:44:39;2.17;;;0.90;;
6290;SDS011;3178;48.730;8.990;2022-10-23T12:47:04;2.70;;;1.10;;
6290;SDS011;3178;48.730;8.990;2022-10-23T12:49:30;6.73;;;1.20;;
6290;SDS011;3178;48.730;8.990;2022-10-23T12:51:59;1.50;;;0.90;;
6290;SDS011;3178;48.730;8.990;2022-10-23T12:54:29;1.53;;;1.00;;
6290;SDS011;3178;48.730;8.990;2022-10-23T12:56:56;4.03;;;1.30;;
6290;SDS011;3178;48.730;8.990;2022-10-23T12:59:23;1.90;;;1.20;;
6290;SDS011;3178;48.730;8.990;2022-10-23T13:01:51;1.50;;;1.20;;
6290;SDS011;3178;48.730;8.990;2022-10-23T13:04:28;1.77;;;1.10;;
6290;SDS011;3178;48.730;8.990;2022-10-23T13:06:59;8.27;;;1.20;;
6290;SDS011;3178;48.730;8.990;2022-10-23T13:09:34;5.23;;;1.50;;
6290;SDS011;3178;48.730;8.990;2022-10-23T13:12:03;3.20;;;0.90;;
6290;SDS011;3178;48.730;8.990;2022-10-23T13:17:05;3.57;;;1.20;;
6290;SDS011;3178;48.730;8.990;2022-10-23T13:19:33;1.53;;;1.10;;
6290;SDS011;3178;48.730;8.990;2022-10-23T13:21:59;3.80;;;1.23;;
6290;SDS011;3178;48.730;8.990;2022-10-23T13:24:27;2.42;;;1.00;;
6290;SDS011;3178;48.730;8.990;2022-10-23T13:26:54;1.95;;;1.05;;
6290;SDS011;3178;48.730;8.990;2022-10-23T13:29:22;2.30;;;1.07;;
6290;SDS011;3178;48.730;8.990;2022-10-23T13:31:51;1.70;;;1.50;;
6290;SDS011;3178;48.730;8.990;2022-10-23T13:34:18;8.60;;;1.30;;
6290;SDS011;3178;48.730;8.990;2022-10-23T13:37:36;1.70;;;1.30;;
6290;SDS011;3178;48.730;8.990;2022-10-23T13:39:46;10.43;;;1.53;;
6290;SDS011;3178;48.730;8.990;2022-10-23T13:42:33;5.83;;;1.17;;
6290;SDS011;3178;48.730;8.990;2022-10-23T13:44:59;4.63;;;1.60;;
6290;SDS011;3178;48.730;8.990;2022-10-23T13:47:24;4.33;;;1.27;;
6290;SDS011;3178;48.730;8.990;2022-10-23T13:49:50;6.70;;;1.37;;
6290;SDS011;3178;48.730;8.990;2022-10-23T13:52:16;4.17;;;1.13;;
6290;SDS011;3178;48.730;8.990;2022-10-23T13:54:46;3.83;;;1.40;;
6290;SDS011;3178;48.730;8.990;2022-10-23T13:57:12;7.37;;;1.67;;
6290;SDS011;3178;48.730;8.990;2022-10-23T13:59:39;3.40;;;1.20;;
6290;SDS011;3178;48.730;8.990;2022-10-23T14:02:17;9.63;;;1.57;;
6290;SDS011;3178;48.730;8.990;2022-10-23T14:04:45;5.90;;;1.73;;
6290;SDS011;3178;48.730;8.990;2022-10-23T14:07:11;3.03;;;1.50;;
6290;SDS011;3178;48.730;8.990;2022-10-23T14:09:37;3.43;;;1.50;;
6290;SDS011;3178;48.730;8.990;2022-10-23T14:12:03;3.73;;;1.40;;
6290;SDS011;3178;48.730;8.990;2022-10-23T14:14:29;2.63;;;1.57;;
6290;SDS011;3178;48.730;8.990;2022-10-23T14:16:54;3.40;;;1.20;;
6290;SDS011;3178;48.730;8.990;2022-10-23T14:19:20;5.90;;;1.30;;
6290;SDS011;3178;48.730;8.990;2022-10-23T14:21:45;57.70;;;3.63;;
6290;SDS011;3178;48.730;8.990;2022-10-23T14:24:11;2.63;;;1.53;;
6290;SDS011;3178;48.730;8.990;2022-10-23T14:26:36;5.53;;;1.60;;
6290;SDS011;3178;48.730;8.990;2022-10-23T14:29:02;2.27;;;1.50;;
6290;SDS011;3178;48.730;8.990;2022-10-23T14:31:28;2.43;;;1.63;;
6290;SDS011;3178;48.730;8.990;2022-10-23T14:33:57;7.90;;;1.70;;
6290;SDS011;3178;48.730;8.990;2022-10-23T14:36:24;3.93;;;1.50;;
6290;SDS011;3178;48.730;8.990;2022-10-23T14:38:57;3.63;;;1.67;;
6290;SDS011;3178;48.730;8.990;2022-10-23T14:41:24;1.43;;;1.30;;
6290;SDS011;3178;48.730;8.990;2022-10-23T14:43:52;3.70;;;1.47;;
6290;SDS011;3178;48.730;8.990;2022-10-23T14:46:19;2.10;;;1.67;;
6290;SDS011;3178;48.730;8.990;2022-10-23T14:48:46;4.63;;;1.80;;
6290;SDS011;3178;48.730;8.990;2022-10-23T14:51:17;2.33;;;1.90;;
6290;SDS011;3178;48.730;8.990;2022-10-23T14:53:45;9.07;;;1.40;;
6290;SDS011;3178;48.730;8.990;2022-10-23T14:56:11;5.43;;;1.30;;
6290;SDS011;3178;48.730;8.990;2022-10-23T14:58:37;2.77;;;1.10;;
6290;SDS011;3178;48.730;8.990;2022-10-23T15:01:03;3.40;;;1.73;;
6290;SDS011;3178;48.730;8.990;2022-10-23T15:03:28;4.43;;;1.40;;
6290;SDS011;3178;48.730;8.990;2022-10-23T15:05:54;2.73;;;1.73;;
6290;SDS011;3178;48.730;8.990;2022-10-23T15:08:20;7.03;;;1.40;;
6290;SDS011;3178;48.730;8.990;2022-10-23T15:10:47;8.73;;;1.07;;
6290;SDS011;3178;48.730;8.990;2022-10-23T15:13:13;3.90;;;1.43;;
6290;SDS011;3178;48.730;8.990;2022-10-23T15:15:38;5.50;;;1.70;;
6290;SDS011;3178;48.730;8.990;2022-10-23T15:18:04;7.77;;;3.00;;
6290;SDS011;3178;48.730;8.990;2022-10-23T15:20:30;5.40;;;3.50;;
6290;SDS011;3178;48.730;8.990;2022-10-23T15:22:55;5.13;;;1.63;;
6290;SDS011;3178;48.730;8.990;2022-10-23T15:25:21;5.53;;;1.90;;
6290;SDS011;3178;48.730;8.990;2022-10-23T15:27:46;4.57;;;2.47;;
6290;SDS011;3178;48.730;8.990;2022-10-23T15:30:12;6.80;;;2.00;;
6290;SDS011;3178;48.730;8.990;2022-10-23T15:32:38;2.97;;;1.53;;
6290;SDS011;3178;48.730;8.990;2022-10-23T15:35:05;3.20;;;1.63;;
6290;SDS011;3178;48.730;8.990;2022-10-23T15:37:30;4.60;;;1.57;;
6290;SDS011;3178;48.730;8.990;2022-10-23T15:39:56;5.43;;;1.50;;
6290;SDS011;3178;48.730;8.990;2022-10-23T15:42:22;5.70;;;1.77;;
6290;SDS011;3178;48.730;8.990;2022-10-23T15:44:48;20.37;;;2.23;;
6290;SDS011;3178;48.730;8.990;2022-10-23T15:47:14;9.00;;;2.03;;
6290;SDS011;3178;48.730;8.990;2022-10-23T15:49:40;5.50;;;1.70;;
6290;SDS011;3178;48.730;8.990;2022-10-23T15:52:05;5.03;;;1.80;;
6290;SDS011;3178;48.730;8.990;2022-10-23T15:54:32;7.63;;;1.57;;
6290;SDS011;3178;48.730;8.990;2022-10-23T15:56:59;2.93;;;1.67;;
6290;SDS011;3178;48.730;8.990;2022-10-23T15:59:25;14.03;;;2.33;;
6290;SDS011;3178;48.730;8.990;2022-10-23T16:01:52;14.20;;;1.70;;
6290;SDS011;3178;48.730;8.990;2022-10-23T16:04:19;5.73;;;1.43;;
6290;SDS011;3178;48.730;8.990;2022-10-23T16:06:45;2.63;;;1.47;;
6290;SDS011;3178;48.730;8.990;2022-10-23T16:09:11;26.90;;;11.77;;
6290;SDS011;3178;48.730;8.990;2022-10-23T16:11:37;38.63;;;23.77;;
6290;SDS011;3178;48.730;8.990;2022-10-23T16:14:04;32.53;;;18.70;;
6290;SDS011;3178;48.730;8.990;2022-10-23T16:16:30;25.20;;;12.40;;
6290;SDS011;3178;48.730;8.990;2022-10-23T16:18:57;33.57;;;18.33;;
6290;SDS011;3178;48.730;8.990;2022-10-23T16:21:25;44.37;;;17.63;;
6290;SDS011;3178;48.730;8.990;2022-10-23T16:23:53;29.03;;;12.93;;
6290;SDS011;3178;48.730;8.990;2022-10-23T16:26:20;48.00;;;24.60;;
6290;SDS011;3178;48.730;8.990;2022-10-23T16:28:46;64.20;;;28.23;;
6290;SDS011;3178;48.730;8.990;2022-10-23T16:31:16;25.10;;;8.17;;
6290;SDS011;3178;48.730;8.990;2022-10-23T16:33:44;14.13;;;8.20;;
6290;SDS011;3178;48.730;8.990;2022-10-23T16:36:09;9.10;;;6.10;;
6290;SDS011;3178;48.730;8.990;2022-10-23T16:38:35;8.60;;;4.23;;
6290;SDS011;3178;48.730;8.990;2022-10-23T16:41:01;10.90;;;3.30;;
6290;SDS011;3178;48.730;8.990;2022-10-23T16:43:27;6.93;;;2.33;;
6290;SDS011;3178;48.730;8.990;2022-10-23T16:46:00;7.30;;;2.30;;
6290;SDS011;3178;48.730;8.990;2022-10-23T16:48:29;5.07;;;1.93;;
6290;SDS011;3178;48.730;8.990;2022-10-23T16:50:55;10.37;;;2.70;;
6290;SDS011;3178;48.730;8.990;2022-10-23T16:53:21;7.70;;;2.03;;
6290;SDS011;3178;48.730;8.990;2022-10-23T16:55:48;12.60;;;3.37;;
6290;SDS011;3178;48.730;8.990;2022-10-23T16:58:14;13.93;;;2.33;;
6290;SDS011;3178;48.730;8.990;2022-10-23T17:00:39;6.90;;;2.70;;